Detall de PIREP

Printer-friendly versionPDF version

[2015/04/09 10:41:00]
Flight IATA:CT2202
Pilot Number:012
Company ICAO:CAT
Aircraft Type:DC3/A
PAX:0
Aircraft Registration:CARGO
Departing Airport: LFMP
Destination Airport: LFBD
Alternate Airport:LFBO
Online: VATSIM
Route:ORBIL G36 GAI G39 SECHE R17 MIRBA
Flight Level:F100
No Slew and time accel
No pause
Crash detect
Detect pilot in Cockpit between each 30 and 45 minutes
10:41 Zero fuel Weight: 20225 Lbs, Fuel Weight: 2583 Lbs
10:41 VATSIM:LFMP 091000Z AUTO 11009KT 080V140 9999 NSC 17/03 Q1026
10:41 VATSIM:LFBD 091000Z AUTO 11010KT 080V150 9999 NSC 17/02 Q1024
10:42 Parking Brakes off
10:46 Take-off
10:46 Take off Weight: 22789 Lbs
10:46 Wind: 099º @ 010 Knots Heading: 330º
10:46 POS N42º 44´ 42´´ E002º 52´ 09´´
10:46 Gear Up: 105 Knots
10:58 TOC
10:58 Fuel Weight: 2395 Lb
11:01 Wind:186º@005 Knots Heading: 326º Ground Speed: 168 Knots Altitude 10364 ft
11:16 Wind:152º@007 Knots Heading: 328º Ground Speed: 171 Knots Altitude 10324 ft
11:31 Wind:143º@012 Knots Heading: 295º Ground Speed: 174 Knots Altitude 10301 ft
11:46 Wind:160º@020 Knots Heading: 333º Ground Speed: 184 Knots Altitude 10301 ft
12:01 Wind:160º@019 Knots Heading: 273º Ground Speed: 173 Knots Altitude 10308 ft
12:02 TOD
12:02 Fuel Weight: 1702 Lb
12:07 Flaps:1 at 163 Knots
12:07 Gear Down: 161 Knots
12:08 Flaps:2 at 136 Knots
12:12 Flaps:3 at 92 Knots
12:13 TouchDown:Rate -239 ft/min Speed: 76 Knots
12:13 VATSIM:LFBD 091200Z AUTO VRB03KT 9999 NSC 20/03 Q1023
12:13 Land
12:13 Wind:110º@007 Knots
12:13 Heading: 107º
12:13 Flight Duration: 01:27
12:13 Landing Weight: 21853 Lbs
12:13 POS N44º 49´ 41´´ W000º 42´ 55´´
12:16 Parking brakes on
12:16 Block to Block Duration: 01:34
12:16 Final Fuel: 1620 Lbls
12:16 Spent Fuel: 963 Lbls
12:16 Flight Length: 234 NM
12:16 TOD Land Length: 24 NM

Exportar CSV

Powered by Drupal - Modified by Danger4k